Time;durP1;ratioP1;P1;durP2;ratioP2;P2;SDS_P1;SDS_P2;PMS_P1;PMS_P2;Temp;Humidity;BMP_temperature;BMP_pressure;BME280_temperature;BME280_humidity;BME280_pressure;Samples;Min_cycle;Max_cycle;Signal;HPM_P1;HPM_P2
2022/04/16 00:00:58;;;;;;;24.45;14.00;;;8.70;99.90;;;6.68;97.91;101957.56;5031035;28;20509;-79
2022/04/16 00:03:26;;;;;;;24.80;14.95;;;8.70;99.90;;;6.68;97.33;101960.28;5031514;28;20053;-79
2022/04/16 00:05:57;;;;;;;25.10;14.32;;;8.70;99.90;;;6.69;98.31;101955.75;5031210;28;20561;-78
2022/04/16 00:08:26;;;;;;;21.42;14.20;;;8.70;99.90;;;6.70;98.55;101952.03;5031341;28;20128;-78
2022/04/16 00:10:54;;;;;;;24.10;14.48;;;8.70;99.90;;;6.62;98.30;101948.09;5030692;28;20063;-78
2022/04/16 00:13:25;;;;;;;21.10;14.02;;;8.70;99.90;;;6.57;98.23;101950.34;5013405;28;20124;-78
2022/04/16 00:15:54;;;;;;;22.80;14.27;;;8.60;99.90;;;6.53;98.33;101954.28;5030744;28;20042;-78
2022/04/16 00:18:25;;;;;;;19.92;14.32;;;8.60;99.90;;;6.49;98.26;101949.22;5031082;28;20056;-78
2022/04/16 00:20:53;;;;;;;21.25;13.32;;;8.60;99.90;;;6.37;98.78;101951.06;5030508;28;20051;-78
2022/04/16 00:23:21;;;;;;;20.40;14.27;;;8.50;99.90;;;6.35;98.91;101947.63;5013120;28;20053;-78
2022/04/16 00:25:50;;;;;;;19.70;13.18;;;8.50;99.90;;;6.35;98.92;101944.91;5030687;28;20049;-78
2022/04/16 00:28:18;;;;;;;20.33;13.85;;;8.50;99.90;;;6.32;99.04;101946.03;5030935;28;20079;-78
2022/04/16 00:30:48;;;;;;;20.90;14.10;;;8.50;99.90;;;6.30;99.38;101942.56;5030464;28;20052;-78
2022/04/16 00:33:18;;;;;;;22.33;14.40;;;8.40;99.90;;;6.26;99.00;101949.19;5031182;28;20042;-78
2022/04/16 00:35:48;;;;;;;21.90;14.18;;;8.40;99.90;;;6.26;99.28;101941.97;5030779;28;20049;-78
2022/04/16 00:38:18;;;;;;;20.80;13.70;;;8.40;99.90;;;6.24;99.31;101946.63;5030762;28;20045;-78
2022/04/16 00:40:46;;;;;;;23.13;14.88;;;8.30;99.90;;;6.20;99.48;101942.44;5030208;28;20120;-78
2022/04/16 00:43:22;;;;;;;23.63;13.90;;;8.30;99.90;;;6.17;99.37;101941.81;5012602;28;20049;-78
2022/04/16 00:45:49;;;;;;;25.50;15.27;;;8.30;99.90;;;6.12;99.63;101947.59;5029984;28;20049;-78
2022/04/16 00:48:18;;;;;;;22.65;15.15;;;8.30;99.90;;;6.11;99.43;101939.59;5030470;28;20056;-78
2022/04/16 00:50:45;;;;;;;22.50;15.10;;;8.20;99.90;;;6.04;99.72;101939.22;5030011;28;20049;-78
2022/04/16 00:53:13;;;;;;;22.02;14.23;;;8.20;99.90;;;6.02;99.74;101938.47;5030539;28;20486;-78
2022/04/16 00:55:40;;;;;;;22.35;13.90;;;8.20;99.90;;;5.99;100.00;101944.13;5030428;28;20045;-78
2022/04/16 00:58:08;;;;;;;23.25;14.40;;;8.10;99.90;;;5.91;99.83;101941.13;5029948;28;20453;-78
2022/04/16 01:00:36;;;;;;;22.33;14.20;;;8.10;99.90;;;5.89;100.00;101938.53;5029742;28;20069;-78
2022/04/16 01:03:04;;;;;;;22.35;15.00;;;8.10;99.90;;;5.90;100.00;101944.78;5029484;28;20677;-78
2022/04/16 01:05:33;;;;;;;23.85;14.43;;;8.00;99.90;;;5.90;100.00;101945.66;5030257;28;20045;-78
2022/04/16 01:08:02;;;;;;;22.15;14.13;;;8.10;99.90;;;5.95;99.99;101942.59;5029812;28;20049;-79
2022/04/16 01:10:31;;;;;;;24.08;15.00;;;8.00;99.90;;;5.91;99.67;101943.81;5029687;28;20045;-78
2022/04/16 01:13:01;;;;;;;23.85;14.80;;;8.00;99.90;;;5.88;99.89;101950.31;5030127;28;20034;-79
2022/04/16 01:15:29;;;;;;;24.20;15.45;;;8.00;99.90;;;5.83;99.93;101947.13;5030059;28;20041;-78
2022/04/16 01:17:57;;;;;;;23.30;15.23;;;8.00;99.90;;;5.76;100.00;101952.13;5011749;28;20500;-78
2022/04/16 01:20:25;;;;;;;26.73;15.43;;;8.00;99.90;;;5.73;100.00;101952.38;5029515;28;20140;-78
2022/04/16 01:22:56;;;;;;;22.23;15.60;;;7.90;99.90;;;5.74;100.00;101956.78;5029927;28;20079;-78
2022/04/16 01:25:27;;;;;;;23.23;15.52;;;7.90;99.90;;;5.80;100.00;101958.16;5012127;28;20053;-78
2022/04/16 01:27:54;;;;;;;21.88;15.65;;;7.90;99.90;;;5.81;100.00;101951.78;5029768;28;20045;-78
2022/04/16 01:30:23;;;;;;;26.08;16.83;;;7.90;99.90;;;5.85;100.00;101956.81;5029378;28;20053;-78
2022/04/16 01:32:54;;;;;;;24.48;15.93;;;7.90;99.90;;;5.84;100.00;101955.09;5029567;28;20051;-78
2022/04/16 01:35:21;;;;;;;25.50;16.27;;;7.90;99.90;;;5.88;100.00;101951.19;5029883;28;20116;-78
2022/04/16 01:37:48;;;;;;;22.63;15.65;;;7.90;99.90;;;5.87;100.00;101959.41;5029426;28;20100;-78
2022/04/16 01:40:18;;;;;;;23.85;15.90;;;7.90;99.90;;;5.86;100.00;101957.69;5029249;28;20482;-78
2022/04/16 01:43:20;;;;;;;28.20;17.40;;;7.90;99.90;;;5.84;100.00;101957.78;5029617;28;20130;-78
2022/04/16 01:50:12;;;;;;;28.20;18.30;;;7.90;99.90;;;5.76;100.00;101956.69;4995736;28;20544;-79
2022/04/16 01:52:42;;;;;;;31.27;19.27;;;7.90;99.90;;;5.74;100.00;101966.75;5029377;28;20045;-78
2022/04/16 01:55:12;;;;;;;33.53;19.35;;;7.80;99.90;;;5.70;100.00;101963.41;5011593;28;20049;-78
2022/04/16 01:57:41;;;;;;;31.55;19.70;;;7.80;99.90;;;5.68;100.00;101959.97;5029155;28;20569;-78
2022/04/16 02:00:11;;;;;;;40.00;19.08;;;7.80;99.90;;;5.64;100.00;101961.19;5028979;28;20055;-78
2022/04/16 02:02:38;;;;;;;30.95;19.67;;;7.80;99.90;;;5.61;100.00;101961.41;5029269;28;20041;-78
2022/04/16 02:05:06;;;;;;;32.10;19.15;;;7.80;99.90;;;5.63;100.00;101962.13;5029488;28;20055;-78
2022/04/16 02:07:35;;;;;;;31.83;18.98;;;7.70;99.90;;;5.59;100.00;101966.91;5029093;28;20047;-78
2022/04/16 02:10:04;;;;;;;33.70;20.27;;;7.70;99.90;;;5.58;100.00;101975.13;5028869;28;20053;-78
2022/04/16 02:12:33;;;;;;;28.35;17.88;;;7.70;99.90;;;5.57;100.00;101968.03;5029443;28;20042;-78
2022/04/16 02:15:02;;;;;;;31.45;18.83;;;7.70;99.90;;;5.58;100.00;101975.13;5033040;28;20132;-78
2022/04/16 02:17:32;;;;;;;32.05;18.83;;;7.70;99.90;;;5.56;100.00;101974.38;5033007;28;20513;-78
2022/04/16 02:19:59;;;;;;;32.55;20.02;;;7.70;99.90;;;5.53;100.00;101988.13;5032975;28;20073;-78
2022/04/16 02:22:27;;;;;;;35.97;21.33;;;7.60;99.90;;;5.50;100.00;101986.50;5033137;28;20129;-78
2022/04/16 02:24:54;;;;;;;37.03;21.83;;;7.60;99.90;;;5.47;100.00;101984.06;5033344;28;20128;-78
2022/04/16 02:27:21;;;;;;;38.38;22.83;;;7.60;99.90;;;5.42;100.00;101987.06;5033080;28;20071;-78
2022/04/16 02:29:51;;;;;;;38.58;22.38;;;7.60;99.90;;;5.35;100.00;101988.53;5032737;28;20099;-78
2022/04/16 02:32:31;;;;;;;36.17;22.17;;;7.50;99.90;;;5.34;100.00;101986.81;5033194;28;20045;-78
2022/04/16 02:35:01;;;;;;;35.47;20.50;;;7.50;99.90;;;5.33;100.00;101998.59;5015199;28;20045;-78
2022/04/16 02:37:31;;;;;;;33.42;20.95;;;7.50;99.90;;;5.36;100.00;101992.94;5032681;28;20044;-78
2022/04/16 02:40:05;;;;;;;33.08;21.15;;;7.50;99.90;;;5.37;100.00;101999.19;5032545;28;20045;-78
2022/04/16 02:42:35;;;;;;;32.45;20.45;;;7.50;99.90;;;5.33;100.00;102001.28;5014919;28;20046;-78
2022/04/16 02:47:49;;;;;;;31.58;19.38;;;7.40;99.90;;;5.32;100.00;102002.25;5032447;28;20049;-78
2022/04/16 02:50:16;;;;;;;33.50;19.98;;;7.40;99.90;;;5.26;100.00;102002.72;5032278;28;20099;-78
2022/04/16 02:52:46;;;;;;;29.30;19.17;;;7.40;99.90;;;5.27;100.00;101999.03;5032787;28;20128;-78
2022/04/16 02:55:15;;;;;;;30.75;19.85;;;7.40;99.90;;;5.26;100.00;102005.41;5032701;28;20079;-78
2022/04/16 02:57:43;;;;;;;31.45;20.08;;;7.40;99.90;;;5.26;100.00;102002.72;5032188;28;20755;-78
2022/04/16 03:00:11;;;;;;;31.42;19.92;;;7.40;99.90;;;5.19;100.00;102006.84;5032074;28;20103;-78
2022/04/16 03:02:39;;;;;;;32.28;19.45;;;7.40;99.90;;;5.16;100.00;102007.03;5032332;28;20073;-78
2022/04/16 03:05:09;;;;;;;32.20;19.50;;;7.40;99.90;;;5.16;100.00;102010.63;5014729;28;20050;-78
2022/04/16 03:07:41;;;;;;;30.83;19.77;;;7.40;99.90;;;5.22;100.00;102017.41;5032098;28;20049;-78
2022/04/16 03:10:10;;;;;;;;;;;7.40;99.90;;;5.23;100.00;102005.63;5032235;28;20132;-78
2022/04/16 03:12:45;;;;;;;29.38;19.52;;;7.40;99.90;;;5.30;100.00;102015.00;5032397;28;19920;-78
2022/04/16 03:17:59;;;;;;;30.55;20.13;;;7.40;99.90;;;5.26;100.00;102010.81;5031874;28;20056;-78
2022/04/16 03:20:29;;;;;;;28.13;19.23;;;7.40;99.90;;;5.26;100.00;102016.22;5031813;28;20056;-78
2022/04/16 03:22:56;;;;;;;28.23;18.70;;;7.40;99.90;;;5.29;100.00;102007.88;5032239;28;20052;-78
2022/04/16 03:25:24;;;;;;;30.17;19.08;;;7.50;99.90;;;5.32;100.00;102014.91;5031390;28;20049;-78
2022/04/16 03:27:51;;;;;;;28.42;18.25;;;7.50;99.90;;;5.31;100.00;102018.56;5031662;28;20037;-78
2022/04/16 03:30:19;;;;;;;30.02;19.25;;;7.50;99.90;;;5.32;100.00;102012.19;5031509;28;20132;-78
2022/04/16 03:32:48;;;;;;;27.77;19.10;;;7.50;99.90;;;5.33;100.00;102013.91;5032243;28;20041;-78
2022/04/16 03:35:15;;;;;;;30.55;19.85;;;7.50;99.90;;;5.33;100.00;102020.19;5032003;28;20045;-78
2022/04/16 03:37:44;;;;;;;27.83;18.83;;;7.50;99.90;;;5.33;100.00;102024.69;5031516;28;20100;-78
2022/04/16 03:40:14;;;;;;;26.80;18.35;;;7.50;99.90;;;5.36;100.00;102021.78;5031407;28;20819;-78
2022/04/16 03:42:46;;;;;;;27.90;19.08;;;7.50;99.90;;;5.36;100.00;102014.53;5031634;28;20045;-78
2022/04/16 03:45:20;;;;;;;29.65;19.52;;;7.50;99.90;;;5.43;100.00;102018.50;5013878;28;20065;-78
2022/04/16 03:47:48;;;;;;;29.60;19.80;;;7.50;99.90;;;5.46;100.00;102022.81;5031468;28;20052;-78
2022/04/16 03:50:15;;;;;;;31.35;19.38;;;7.50;99.90;;;5.48;100.00;102020.88;5031254;28;20128;-78
2022/04/16 03:52:44;;;;;;;27.08;19.42;;;7.60;99.90;;;5.53;100.00;102024.09;5031809;28;20138;-78
2022/04/16 04:00:44;;;;;;;37.03;21.65;;;7.80;99.90;;;5.65;100.00;102027.72;5031038;28;20060;-78
2022/04/16 04:03:11;;;;;;;30.75;19.83;;;7.70;99.90;;;5.70;100.00;102044.44;5031373;28;20052;-78
2022/04/16 04:05:39;;;;;;;33.95;20.98;;;7.80;99.90;;;5.71;100.00;102034.47;5031436;28;20132;-78
2022/04/16 04:08:09;;;;;;;32.72;21.77;;;7.80;99.90;;;5.75;100.00;102036.84;5030828;28;20056;-78
2022/04/16 04:10:36;;;;;;;29.67;19.73;;;7.80;99.90;;;5.77;100.00;102043.00;5031001;28;20052;-78
2022/04/16 04:13:05;;;;;;;30.63;20.85;;;7.90;99.90;;;5.80;100.00;102039.19;5031184;28;20041;-78
2022/04/16 04:15:32;;;;;;;29.65;20.27;;;7.90;99.90;;;5.82;100.00;102039.94;5031156;28;20073;-78
2022/04/16 04:18:03;;;;;;;27.52;19.33;;;7.90;99.90;;;5.73;100.00;102040.63;5030650;28;20053;-78
2022/04/16 04:20:31;;;;;;;33.17;21.52;;;7.90;99.90;;;5.73;100.00;102037.94;5030573;28;20056;-78
2022/04/16 04:22:59;;;;;;;29.35;20.45;;;7.90;99.90;;;5.71;100.00;102037.19;5031185;28;20060;-78
2022/04/16 04:25:28;;;;;;;30.85;19.77;;;7.90;99.90;;;5.67;100.00;102044.66;5031099;28;20056;-78
2022/04/16 04:27:55;;;;;;;29.90;20.20;;;7.80;99.90;;;5.68;100.00;102046.41;5030623;28;20143;-78
2022/04/16 04:30:22;;;;;;;28.42;19.20;;;7.80;99.90;;;5.67;100.00;102050.94;5030572;28;20049;-78
2022/04/16 04:32:50;;;;;;;30.95;20.63;;;7.80;99.90;;;5.70;100.00;102055.25;5030899;28;20042;-78
2022/04/16 04:35:17;;;;;;;29.15;20.42;;;7.80;99.90;;;5.63;100.00;102053.97;5030961;28;20088;-78
2022/04/16 04:37:45;;;;;;;31.73;19.63;;;7.80;99.90;;;5.60;100.00;102059.63;5012515;28;20140;-78
2022/04/16 04:40:12;;;;;;;29.77;18.88;;;7.80;99.90;;;5.56;100.00;102066.19;5030297;28;20045;-78
2022/04/16 04:42:41;;;;;;;27.40;19.42;;;7.70;99.90;;;5.51;100.00;102065.69;5012908;28;20484;-78
2022/04/16 04:45:09;;;;;;;29.05;19.05;;;7.70;99.90;;;5.42;100.00;102062.69;5030814;28;20120;-78
2022/04/16 04:47:37;;;;;;;29.10;19.30;;;7.70;99.90;;;5.45;100.00;102064.31;5030065;28;20498;-78
2022/04/16 04:50:06;;;;;;;27.00;18.75;;;7.70;99.90;;;5.41;100.00;102071.78;5029896;28;20488;-78
2022/04/16 04:52:37;;;;;;;27.38;19.08;;;7.60;99.90;;;5.37;100.00;102081.06;5030421;28;20041;-78
2022/04/16 04:55:09;;;;;;;26.83;18.87;;;7.60;99.90;;;5.32;100.00;102087.78;5030505;28;20100;-78
2022/04/16 04:57:36;;;;;;;31.17;19.27;;;7.50;99.90;;;5.33;100.00;102089.50;5030138;28;20288;-78
2022/04/16 05:00:07;;;;;;;30.52;19.05;;;7.50;99.90;;;5.34;100.00;102083.97;5029775;28;20124;-78
2022/04/16 05:02:42;;;;;;;;;;;7.50;99.90;;;5.41;100.00;102093.38;5030786;28;20045;-78
2022/04/16 05:05:10;;;;;;;32.08;19.25;;;7.50;99.90;;;5.41;100.00;102098.78;5030326;28;19921;-78
2022/04/16 05:07:37;;;;;;;27.48;18.48;;;7.50;99.90;;;5.42;100.00;102103.19;5029946;28;20052;-78
2022/04/16 05:10:06;;;;;;;28.50;18.67;;;7.60;99.90;;;5.48;100.00;102097.34;5029807;28;20093;-78
2022/04/16 05:12:33;;;;;;;32.70;20.23;;;7.60;99.90;;;5.53;100.00;102102.41;5030109;28;20053;-78
2022/04/16 05:15:00;;;;;;;29.17;19.70;;;7.60;99.90;;;5.60;100.00;102095.59;5030358;28;20046;-78
2022/04/16 05:17:29;;;;;;;31.40;20.45;;;7.60;99.90;;;5.66;100.00;102108.63;5029694;28;20049;-78
2022/04/16 05:19:56;;;;;;;30.17;20.13;;;7.70;99.90;;;5.74;100.00;102110.75;5029544;28;20116;-77
2022/04/16 05:22:24;;;;;;;31.40;20.27;;;7.80;99.90;;;5.79;100.00;102119.41;5029962;28;20049;-78
2022/04/16 05:24:51;;;;;;;28.35;19.52;;;7.80;99.90;;;5.89;100.00;102111.47;5029764;28;20152;-78
2022/04/16 05:27:18;;;;;;;31.40;20.73;;;7.90;99.90;;;6.03;100.00;102107.75;5029628;28;20057;-78
2022/04/16 05:30:05;;;;;;;35.78;23.02;;;8.00;99.90;;;6.21;100.00;102109.06;5029404;28;20128;-78
2022/04/16 05:32:36;;;;;;;36.72;23.65;;;8.10;99.90;;;6.33;100.00;102107.25;5012020;28;20422;-78
2022/04/16 05:35:05;;;;;;;33.42;22.30;;;8.20;99.90;;;6.42;100.00;102111.97;5029895;28;20038;-78
2022/04/16 05:37:32;;;;;;;34.13;22.10;;;8.40;99.90;;;6.48;100.00;102118.75;5029270;28;20077;-78
2022/04/16 05:39:59;;;;;;;32.92;21.35;;;8.50;99.90;;;6.53;100.00;102118.38;5011340;28;20473;-77
2022/04/16 05:42:27;;;;;;;34.40;23.02;;;8.50;99.90;;;6.60;100.00;102125.03;5029697;28;20041;-77
2022/04/16 05:44:59;;;;;;;35.13;22.73;;;8.60;99.90;;;6.70;100.00;102120.66;5029665;28;20057;-78
2022/04/16 05:47:26;;;;;;;34.40;23.10;;;8.70;99.90;;;6.83;100.00;102125.94;5029458;28;20080;-78
2022/04/16 05:49:55;;;;;;;35.08;24.45;;;8.80;99.90;;;6.90;100.00;102126.34;5010917;28;20524;-78
2022/04/16 05:52:23;;;;;;;38.30;24.77;;;8.80;99.90;;;6.95;100.00;102125.00;5029415;28;20049;-78
2022/04/16 05:54:51;;;;;;;33.60;23.42;;;8.90;99.90;;;7.04;100.00;102118.84;5029507;28;20045;-78
2022/04/16 05:57:20;;;;;;;38.60;24.40;;;9.00;99.90;;;7.15;100.00;102130.66;5029216;28;20588;-78
2022/04/16 05:59:47;;;;;;;38.08;24.52;;;9.00;99.90;;;7.23;100.00;102128.19;5029032;28;20496;-78
2022/04/16 06:02:16;;;;;;;39.92;24.90;;;9.10;99.90;;;7.30;100.00;102134.84;5029406;28;20054;-78
2022/04/16 06:04:43;;;;;;;37.83;25.48;;;9.20;99.90;;;7.42;100.00;102133.88;5029532;28;20398;-78
2022/04/16 06:07:12;;;;;;;42.97;26.52;;;9.30;99.90;;;7.54;100.00;102141.97;5029106;28;20045;-78
2022/04/16 06:09:39;;;;;;;37.72;25.95;;;9.30;99.90;;;7.62;100.00;102144.94;5029120;28;20465;-78
2022/04/16 06:12:09;;;;;;;40.00;26.90;;;9.40;99.90;;;7.70;100.00;102150.59;5029205;28;20056;-78
2022/04/16 06:14:36;;;;;;;41.47;27.35;;;9.50;99.90;;;7.79;100.00;102152.53;5029431;28;20047;-78
2022/04/16 06:17:04;;;;;;;43.95;27.48;;;9.50;99.90;;;7.88;100.00;102140.09;5029054;28;20123;-78
2022/04/16 06:19:31;;;;;;;39.45;25.85;;;9.60;99.90;;;8.03;100.00;102148.78;5029174;28;20046;-78
2022/04/16 06:21:58;;;;;;;42.95;28.55;;;9.70;99.90;;;8.11;100.00;102150.84;5028987;28;20421;-78
2022/04/16 06:24:27;;;;;;;44.22;29.08;;;9.80;99.90;;;8.17;100.00;102147.66;5029407;28;20549;-78
2022/04/16 06:26:54;;;;;;;45.00;28.30;;;9.80;99.90;;;8.26;100.00;102154.13;5029144;28;20096;-78
2022/04/16 06:29:21;;;;;;;41.92;27.35;;;9.90;99.90;;;8.35;100.00;102148.78;5029138;28;20053;-78
2022/04/16 06:31:48;;;;;;;44.05;29.00;;;9.90;99.90;;;8.48;100.00;102148.66;5028309;28;20046;-78
2022/04/16 06:34:16;;;;;;;43.90;29.67;;;10.10;99.90;;;8.67;100.00;102150.66;5011554;28;20490;-78
2022/04/16 06:36:44;;;;;;;41.97;27.40;;;10.10;99.90;;;8.85;100.00;102150.91;5028801;28;20080;-78
2022/04/16 06:39:11;;;;;;;41.30;27.70;;;10.20;99.90;;;8.99;100.00;102158.72;5029757;28;20053;-78
2022/04/16 06:41:39;;;;;;;38.67;26.98;;;10.30;99.90;;;9.03;100.00;102156.59;5028744;28;20076;-78
2022/04/16 06:44:07;;;;;;;40.35;25.65;;;10.40;99.90;;;9.17;100.00;102155.38;5011299;28;20060;-78
2022/04/16 06:46:34;;;;;;;43.33;24.90;;;10.50;99.90;;;9.30;100.00;102156.03;5028601;28;20056;-78
2022/04/16 06:49:01;;;;;;;37.85;24.98;;;10.50;99.90;;;9.33;100.00;102165.78;5029148;28;20057;-78
2022/04/16 06:51:29;;;;;;;36.97;24.42;;;10.70;99.90;;;9.41;100.00;102156.94;5028682;28;20037;-78
2022/04/16 06:53:56;;;;;;;36.58;23.15;;;10.70;99.90;;;9.44;100.00;102156.66;5029129;28;20597;-78
2022/04/16 06:56:24;;;;;;;35.30;23.05;;;10.80;99.90;;;9.42;100.00;102164.06;5028729;28;20053;-78
2022/04/16 06:58:52;;;;;;;32.03;21.55;;;10.80;99.90;;;9.46;99.16;102158.25;5029148;28;20054;-78
2022/04/16 07:01:20;;;;;;;33.03;21.83;;;10.90;99.90;;;9.46;98.85;102151.94;5030635;28;20117;-78
2022/04/16 07:03:47;;;;;;;33.10;21.20;;;10.90;99.90;;;9.48;99.15;102160.81;5032463;28;20073;-78
2022/04/16 07:06:14;;;;;;;37.28;21.95;;;10.90;99.90;;;9.62;98.95;102170.47;5032152;28;20049;-78
2022/04/16 07:08:41;;;;;;;29.55;19.55;;;11.00;99.90;;;9.69;97.98;102158.03;5032560;28;20517;-78
2022/04/16 07:11:08;;;;;;;30.38;19.73;;;11.00;99.90;;;9.75;96.81;102166.50;5031822;28;20071;-78
2022/04/16 07:13:36;;;;;;;32.20;19.83;;;11.10;99.90;;;9.76;96.64;102161.91;5032896;28;20484;-78
2022/04/16 07:16:05;;;;;;;31.92;20.20;;;11.10;99.90;;;9.88;95.89;102157.22;5032079;28;20424;-78
2022/04/16 07:18:32;;;;;;;29.27;19.00;;;11.20;99.90;;;10.03;95.67;102155.81;5032278;28;20132;-78
2022/04/16 07:20:59;;;;;;;30.10;18.88;;;11.20;99.90;;;10.24;95.62;102152.13;5031723;28;20053;-78
2022/04/16 07:23:27;;;;;;;27.02;18.95;;;11.40;99.90;;;10.18;94.04;102156.25;5032367;28;20053;-78
2022/04/16 07:25:54;;;;;;;29.30;18.35;;;11.30;99.90;;;10.29;93.49;102158.00;5031676;28;20068;-78
2022/04/16 07:28:22;;;;;;;28.10;17.90;;;11.40;99.90;;;10.36;92.90;102154.59;5032111;28;20128;-78
2022/04/16 07:30:49;;;;;;;26.75;18.25;;;11.50;99.90;;;10.43;92.27;102152.16;5031838;28;20741;-78
2022/04/16 07:33:19;;;;;;;27.75;17.88;;;11.60;99.90;;;10.41;92.39;102153.31;5032055;28;20053;-78
2022/04/16 07:35:46;;;;;;;27.20;18.05;;;11.60;99.90;;;10.43;91.38;102156.75;5031714;28;20406;-78
2022/04/16 07:38:14;;;;;;;25.85;18.73;;;11.70;99.70;;;10.47;91.55;102158.16;5031918;28;20499;-78
2022/04/16 07:40:41;;;;;;;25.77;17.70;;;11.70;99.50;;;10.49;89.69;102154.31;5013598;28;20155;-78
2022/04/16 07:43:08;;;;;;;24.92;17.63;;;11.80;99.00;;;10.57;90.79;102140.84;5032016;28;20144;-78
2022/04/16 07:45:35;;;;;;;25.33;17.45;;;11.80;99.20;;;10.72;91.56;102143.13;5031811;28;20128;-78
2022/04/16 07:48:02;;;;;;;26.52;18.35;;;11.90;99.90;;;10.75;90.33;102148.25;5031294;28;20465;-78
2022/04/16 07:50:31;;;;;;;27.15;17.95;;;11.90;99.30;;;10.78;90.46;102141.69;5031139;28;20144;-78
2022/04/16 07:52:58;;;;;;;28.67;18.42;;;11.90;99.00;;;10.63;89.49;102141.28;5013818;28;20049;-78
2022/04/16 07:55:27;;;;;;;27.42;18.15;;;12.00;98.70;;;10.62;89.81;102140.41;5031696;28;20065;-78
2022/04/16 07:57:55;;;;;;;25.77;17.20;;;11.90;98.40;;;10.78;89.84;102149.88;5031197;28;20128;-78
2022/04/16 08:00:22;;;;;;;28.00;17.95;;;12.00;98.50;;;10.87;89.67;102144.41;5031044;28;20121;-78
2022/04/16 08:02:49;;;;;;;23.92;16.65;;;12.00;98.50;;;10.95;89.14;102141.78;5031584;28;20063;-78
2022/04/16 08:05:17;;;;;;;26.67;17.58;;;12.10;98.50;;;11.04;89.11;102145.50;5031356;28;20179;-78
2022/04/16 08:07:45;;;;;;;25.25;16.55;;;12.20;98.60;;;11.00;86.66;102146.78;5031251;28;20080;-78
2022/04/16 08:10:13;;;;;;;24.88;17.20;;;12.20;97.20;;;11.13;88.14;102151.91;5031030;28;20419;-78
2022/04/16 08:12:40;;;;;;;27.80;17.75;;;12.30;98.10;;;11.10;86.13;102153.09;5030884;28;20491;-78
2022/04/16 08:15:10;;;;;;;24.77;16.88;;;12.30;96.70;;;11.20;86.94;102166.66;5031394;28;20049;-78
2022/04/16 08:17:37;;;;;;;23.23;15.80;;;12.40;97.20;;;11.27;86.10;102154.19;5030866;28;20065;-78
2022/04/16 08:20:06;;;;;;;23.15;16.15;;;12.40;95.90;;;11.46;86.96;102157.81;5030605;28;20052;-78
2022/04/16 08:23:16;;;;;;;;;;;;;;;;;;;;;
2022/04/16 08:26:47;;;;;;;23.25;15.20;;;12.60;97.00;;;11.49;84.75;102146.63;5017695;28;20060;-78
2022/04/16 08:29:28;;;;;;;23.52;15.27;;;12.70;96.50;;;11.49;81.90;102161.09;5008498;28;20049;-78
2022/04/16 08:31:55;;;;;;;23.15;16.10;;;12.70;94.40;;;11.49;82.89;102160.25;5030503;28;20131;-79
2022/04/16 08:34:30;;;;;;;22.45;15.23;;;12.70;94.50;;;11.57;82.92;102160.34;5030868;28;20520;-78
2022/04/16 08:36:58;;;;;;;22.52;15.73;;;12.80;94.70;;;11.53;81.67;102158.94;5011747;28;20055;-78
2022/04/16 08:39:28;;;;;;;24.05;15.35;;;12.70;93.50;;;11.39;80.59;102168.47;5030898;28;20126;-78
2022/04/16 08:41:58;;;;;;;23.42;15.15;;;12.70;93.30;;;11.29;82.08;102163.06;5030442;28;20049;-78
2022/04/16 08:44:27;;;;;;;23.17;15.05;;;12.60;93.70;;;11.54;82.99;102160.66;5012757;28;20049;-78
2022/04/16 08:46:55;;;;;;;21.23;14.20;;;12.70;94.90;;;11.64;81.93;102160.63;5030233;28;20131;-78
2022/04/16 08:49:27;;;;;;;20.98;14.20;;;12.80;93.50;;;11.67;80.02;102161.19;5030335;28;20049;-78
2022/04/16 08:52:29;;;;;;;20.35;13.07;;;12.80;92.70;;;11.72;78.71;102163.44;5030208;28;20530;-78
2022/04/16 08:54:59;;;;;;;17.63;12.40;;;12.90;92.20;;;11.65;77.83;102171.38;5030602;28;20033;-78
2022/04/16 08:57:26;;;;;;;19.67;13.05;;;12.90;91.10;;;11.57;77.17;102167.69;5030014;28;20066;-78
2022/04/16 09:00:07;;;;;;;18.80;12.27;;;12.90;90.50;;;11.56;78.51;102175.00;5029689;28;20037;-78
2022/04/16 09:02:39;;;;;;;18.85;13.07;;;12.80;90.90;;;11.67;78.51;102176.66;5012558;28;20130;-78
2022/04/16 09:05:20;;;;;;;18.73;12.23;;;12.90;90.90;;;11.57;76.53;102182.16;5030277;28;20049;-78
2022/04/16 09:07:49;;;;;;;15.65;10.18;;;12.90;90.60;;;11.45;75.69;102169.75;5012085;28;20057;-78
2022/04/16 09:10:21;;;;;;;14.75;10.15;;;12.80;88.80;;;11.53;75.99;102178.03;5029662;28;20568;-78
2022/04/16 09:12:52;;;;;;;14.93;10.43;;;12.80;88.90;;;11.59;75.32;102165.66;5030255;28;20108;-78
2022/04/16 09:15:20;;;;;;;15.63;9.65;;;12.90;88.80;;;11.72;75.62;102164.28;5030223;28;20065;-78
2022/04/16 09:18:01;;;;;;;15.95;9.75;;;12.90;89.60;;;11.85;75.90;102171.28;5029709;28;20801;-78
2022/04/16 09:20:34;;;;;;;16.17;9.10;;;13.10;89.60;;;11.87;73.84;102166.53;5011739;28;20068;-78
2022/04/16 09:23:03;;;;;;;15.43;10.52;;;13.10;88.10;;;11.90;72.89;102169.00;5011559;28;20053;-78
2022/04/16 09:25:32;;;;;;;16.45;10.43;;;13.10;87.30;;;11.93;71.93;102183.16;5012061;28;20417;-78
2022/04/16 09:28:07;;;;;;;15.90;11.00;;;13.10;87.10;;;11.82;70.96;102169.72;5029554;28;20089;-78
2022/04/16 09:30:37;;;;;;;13.63;9.68;;;13.10;86.10;;;11.89;72.29;102180.88;5029187;28;20045;-78
2022/04/16 09:33:06;;;;;;;16.67;9.80;;;13.10;86.90;;;12.00;71.58;102177.13;5011929;28;20876;-78
2022/04/16 09:35:36;;;;;;;14.68;9.60;;;13.20;86.70;;;12.02;72.29;102178.66;5029834;28;20128;-78
2022/04/16 09:38:06;;;;;;;19.25;10.60;;;13.30;87.10;;;11.90;69.06;102177.19;5029481;28;20061;-78
2022/04/16 09:40:36;;;;;;;16.77;10.25;;;13.20;84.70;;;11.73;71.21;102182.38;5029425;28;20049;-78
2022/04/16 09:43:07;;;;;;;15.23;9.50;;;13.10;86.00;;;11.70;71.76;102174.50;5029821;28;20076;-78
2022/04/16 09:45:40;;;;;;;15.82;9.90;;;13.10;86.80;;;11.70;70.53;102193.59;5029645;28;20049;-78
2022/04/16 09:48:11;;;;;;;14.52;9.55;;;13.10;85.50;;;11.63;70.28;102180.69;5011328;28;20053;-78
2022/04/16 09:50:41;;;;;;;15.55;9.55;;;13.00;85.30;;;11.71;71.22;102178.94;5029014;28;20086;-79
2022/04/16 09:53:09;;;;;;;15.88;9.73;;;13.00;86.00;;;11.80;70.81;102185.34;5029799;28;20470;-78
2022/04/16 09:55:41;;;;;;;13.43;9.68;;;13.10;85.80;;;11.88;71.50;102204.56;5011823;28;20506;-78
2022/04/16 09:58:09;;;;;;;14.20;9.43;;;13.10;86.50;;;11.78;69.54;102190.09;5029100;28;20056;-78
2022/04/16 10:00:38;;;;;;;14.52;8.75;;;13.10;84.60;;;11.74;67.88;102180.50;5011097;28;20041;-78
2022/04/16 10:03:08;;;;;;;15.63;9.68;;;13.10;83.70;;;11.71;67.65;102189.88;5029571;28;20457;-78
2022/04/16 10:05:36;;;;;;;14.43;9.75;;;13.00;82.90;;;11.77;68.74;102182.09;5011538;28;20425;-79
2022/04/16 10:08:05;;;;;;;13.60;9.15;;;13.10;84.40;;;11.83;69.67;102186.94;5011233;28;20064;-78
2022/04/16 10:10:40;;;;;;;13.90;9.88;;;13.10;85.30;;;11.74;69.01;102183.22;5028918;28;20133;-78
2022/04/16 10:13:12;;;;;;;10.80;7.82;;;13.10;84.60;;;11.76;68.82;102178.50;5029514;28;20045;-78
2022/04/16 10:15:57;;;;;;;11.60;7.63;;;13.10;83.80;;;11.78;67.18;102167.44;5029650;28;20573;-78
2022/04/16 10:18:25;;;;;;;13.68;8.63;;;13.00;82.30;;;11.80;67.63;102170.88;5029312;28;20115;-78
2022/04/16 10:20:53;;;;;;;14.98;9.38;;;13.10;82.60;;;11.85;67.58;102179.47;5010807;28;20429;-78
2022/04/16 10:23:31;;;;;;;14.00;8.35;;;13.20;83.40;;;11.88;67.45;102168.22;5029313;28;20055;-78
2022/04/16 10:26:08;;;;;;;12.20;8.65;;;13.10;83.00;;;11.83;67.51;102167.84;5028938;28;20045;-78
2022/04/16 10:28:43;;;;;;;13.50;9.57;;;13.10;82.90;;;11.87;67.62;102166.53;5029296;28;20513;-78
2022/04/16 10:31:28;;;;;;;13.57;9.15;;;13.20;83.60;;;11.89;67.94;102165.38;5028865;28;20129;-78
2022/04/16 10:34:10;;;;;;;12.00;8.40;;;13.20;83.20;;;11.92;68.18;102164.22;5029172;28;20516;-78